sensor_id;sensor_type;location;lat;lon;timestamp;P1;durP1;ratioP1;P2;durP2;ratioP2
59492;SDS011;45497;43.996;22.876;2022-09-03T00:00:29;4.18;;;3.00;;
59492;SDS011;45497;43.996;22.876;2022-09-03T00:03:01;4.80;;;2.92;;
59492;SDS011;45497;43.996;22.876;2022-09-03T00:05:37;5.78;;;2.72;;
59492;SDS011;45497;43.996;22.876;2022-09-03T00:10:46;4.50;;;2.42;;
59492;SDS011;45497;43.996;22.876;2022-09-03T00:13:29;4.40;;;2.80;;
59492;SDS011;45497;43.996;22.876;2022-09-03T00:17:52;3.60;;;2.50;;
59492;SDS011;45497;43.996;22.876;2022-09-03T00:20:24;3.70;;;2.90;;
59492;SDS011;45497;43.996;22.876;2022-09-03T00:22:57;6.25;;;2.80;;
59492;SDS011;45497;43.996;22.876;2022-09-03T00:25:32;3.50;;;2.50;;
59492;SDS011;45497;43.996;22.876;2022-09-03T00:28:03;5.57;;;2.88;;
59492;SDS011;45497;43.996;22.876;2022-09-03T00:30:37;4.10;;;2.67;;
59492;SDS011;45497;43.996;22.876;2022-09-03T00:33:09;4.15;;;2.72;;
59492;SDS011;45497;43.996;22.876;2022-09-03T00:35:47;3.13;;;2.78;;
59492;SDS011;45497;43.996;22.876;2022-09-03T00:38:17;4.18;;;3.00;;
59492;SDS011;45497;43.996;22.876;2022-09-03T00:41:00;4.63;;;3.03;;
59492;SDS011;45497;43.996;22.876;2022-09-03T00:55:12;5.73;;;2.80;;
59492;SDS011;45497;43.996;22.876;2022-09-03T01:00:38;3.50;;;2.75;;
59492;SDS011;45497;43.996;22.876;2022-09-03T01:11:35;4.47;;;2.97;;
59492;SDS011;45497;43.996;22.876;2022-09-03T01:16:47;3.60;;;2.80;;
59492;SDS011;45497;43.996;22.876;2022-09-03T01:30:26;5.22;;;3.17;;
59492;SDS011;45497;43.996;22.876;2022-09-03T01:33:08;4.43;;;2.60;;
59492;SDS011;45497;43.996;22.876;2022-09-03T01:47:04;3.45;;;3.15;;
59492;SDS011;45497;43.996;22.876;2022-09-03T01:49:43;4.93;;;3.00;;
59492;SDS011;45497;43.996;22.876;2022-09-03T01:52:11;3.85;;;2.95;;
59492;SDS011;45497;43.996;22.876;2022-09-03T01:54:47;5.50;;;3.33;;
59492;SDS011;45497;43.996;22.876;2022-09-03T02:02:37;4.65;;;3.10;;
59492;SDS011;45497;43.996;22.876;2022-09-03T02:06:52;5.00;;;3.08;;
59492;SDS011;45497;43.996;22.876;2022-09-03T02:09:21;4.83;;;3.10;;
59492;SDS011;45497;43.996;22.876;2022-09-03T02:11:52;5.47;;;3.20;;
59492;SDS011;45497;43.996;22.876;2022-09-03T02:14:24;3.47;;;2.90;;
59492;SDS011;45497;43.996;22.876;2022-09-03T02:16:51;3.80;;;3.22;;
59492;SDS011;45497;43.996;22.876;2022-09-03T02:19:18;3.88;;;3.20;;
59492;SDS011;45497;43.996;22.876;2022-09-03T02:21:46;5.60;;;3.30;;
59492;SDS011;45497;43.996;22.876;2022-09-03T02:24:15;6.30;;;3.15;;
59492;SDS011;45497;43.996;22.876;2022-09-03T02:26:42;4.90;;;3.50;;
59492;SDS011;45497;43.996;22.876;2022-09-03T02:29:07;5.80;;;3.20;;
59492;SDS011;45497;43.996;22.876;2022-09-03T02:31:34;4.18;;;3.40;;
59492;SDS011;45497;43.996;22.876;2022-09-03T02:34:00;5.13;;;3.42;;
59492;SDS011;45497;43.996;22.876;2022-09-03T02:36:36;4.20;;;3.03;;
59492;SDS011;45497;43.996;22.876;2022-09-03T02:39:05;3.50;;;3.03;;
59492;SDS011;45497;43.996;22.876;2022-09-03T02:41:31;4.22;;;3.15;;
59492;SDS011;45497;43.996;22.876;2022-09-03T02:44:00;5.30;;;2.85;;
59492;SDS011;45497;43.996;22.876;2022-09-03T02:46:52;4.87;;;3.03;;
59492;SDS011;45497;43.996;22.876;2022-09-03T02:49:21;3.70;;;2.80;;
59492;SDS011;45497;43.996;22.876;2022-09-03T02:53:54;4.78;;;2.83;;
59492;SDS011;45497;43.996;22.876;2022-09-03T02:56:19;3.65;;;2.80;;
59492;SDS011;45497;43.996;22.876;2022-09-03T02:58:48;3.70;;;2.60;;
59492;SDS011;45497;43.996;22.876;2022-09-03T03:03:15;3.87;;;2.80;;
59492;SDS011;45497;43.996;22.876;2022-09-03T03:05:51;4.40;;;2.50;;
59492;SDS011;45497;43.996;22.876;2022-09-03T03:08:19;5.05;;;2.78;;
59492;SDS011;45497;43.996;22.876;2022-09-03T03:10:47;4.13;;;3.00;;
59492;SDS011;45497;43.996;22.876;2022-09-03T03:13:14;4.10;;;2.70;;
59492;SDS011;45497;43.996;22.876;2022-09-03T03:15:40;5.95;;;3.15;;
59492;SDS011;45497;43.996;22.876;2022-09-03T03:18:06;3.35;;;2.95;;
59492;SDS011;45497;43.996;22.876;2022-09-03T03:20:36;4.20;;;3.13;;
59492;SDS011;45497;43.996;22.876;2022-09-03T03:23:05;4.07;;;3.10;;
59492;SDS011;45497;43.996;22.876;2022-09-03T03:25:37;5.55;;;3.30;;
59492;SDS011;45497;43.996;22.876;2022-09-03T03:28:04;6.32;;;3.70;;
59492;SDS011;45497;43.996;22.876;2022-09-03T03:30:30;4.72;;;3.70;;
59492;SDS011;45497;43.996;22.876;2022-09-03T03:32:57;5.63;;;3.97;;
59492;SDS011;45497;43.996;22.876;2022-09-03T03:35:22;7.30;;;4.10;;
59492;SDS011;45497;43.996;22.876;2022-09-03T03:37:48;6.53;;;3.90;;
59492;SDS011;45497;43.996;22.876;2022-09-03T03:40:14;6.47;;;3.53;;
59492;SDS011;45497;43.996;22.876;2022-09-03T03:42:40;4.43;;;3.35;;
59492;SDS011;45497;43.996;22.876;2022-09-03T03:45:06;4.30;;;3.10;;
59492;SDS011;45497;43.996;22.876;2022-09-03T03:47:34;3.40;;;3.10;;
59492;SDS011;45497;43.996;22.876;2022-09-03T03:50:00;5.80;;;2.83;;
59492;SDS011;45497;43.996;22.876;2022-09-03T03:52:26;3.88;;;3.20;;
59492;SDS011;45497;43.996;22.876;2022-09-03T03:54:52;4.47;;;2.95;;
59492;SDS011;45497;43.996;22.876;2022-09-03T03:57:18;5.38;;;3.05;;
59492;SDS011;45497;43.996;22.876;2022-09-03T03:59:44;5.47;;;2.90;;
59492;SDS011;45497;43.996;22.876;2022-09-03T04:02:10;4.82;;;2.97;;
59492;SDS011;45497;43.996;22.876;2022-09-03T04:04:36;5.00;;;3.10;;
59492;SDS011;45497;43.996;22.876;2022-09-03T04:07:02;4.67;;;3.13;;
59492;SDS011;45497;43.996;22.876;2022-09-03T04:09:28;4.90;;;3.10;;
59492;SDS011;45497;43.996;22.876;2022-09-03T04:11:53;4.47;;;2.80;;
59492;SDS011;45497;43.996;22.876;2022-09-03T04:14:20;4.50;;;3.03;;
59492;SDS011;45497;43.996;22.876;2022-09-03T04:16:46;4.23;;;2.70;;
59492;SDS011;45497;43.996;22.876;2022-09-03T04:19:12;6.50;;;2.88;;
59492;SDS011;45497;43.996;22.876;2022-09-03T04:21:37;5.73;;;2.97;;
59492;SDS011;45497;43.996;22.876;2022-09-03T04:24:03;7.13;;;3.60;;
59492;SDS011;45497;43.996;22.876;2022-09-03T04:26:29;5.85;;;3.65;;
59492;SDS011;45497;43.996;22.876;2022-09-03T04:28:56;4.13;;;3.22;;
59492;SDS011;45497;43.996;22.876;2022-09-03T04:31:23;5.07;;;3.28;;
59492;SDS011;45497;43.996;22.876;2022-09-03T04:33:49;5.20;;;3.42;;
59492;SDS011;45497;43.996;22.876;2022-09-03T04:36:19;6.85;;;4.22;;
59492;SDS011;45497;43.996;22.876;2022-09-03T04:38:47;7.87;;;4.57;;
59492;SDS011;45497;43.996;22.876;2022-09-03T04:41:16;7.57;;;4.50;;
59492;SDS011;45497;43.996;22.876;2022-09-03T04:43:44;5.57;;;3.83;;
59492;SDS011;45497;43.996;22.876;2022-09-03T04:46:10;6.07;;;3.47;;
59492;SDS011;45497;43.996;22.876;2022-09-03T04:48:37;5.85;;;3.47;;
59492;SDS011;45497;43.996;22.876;2022-09-03T04:53:34;6.07;;;3.20;;
59492;SDS011;45497;43.996;22.876;2022-09-03T04:56:02;6.40;;;3.30;;
59492;SDS011;45497;43.996;22.876;2022-09-03T04:58:35;5.55;;;3.20;;
59492;SDS011;45497;43.996;22.876;2022-09-03T05:01:06;6.82;;;3.67;;
59492;SDS011;45497;43.996;22.876;2022-09-03T05:03:32;5.67;;;3.50;;
59492;SDS011;45497;43.996;22.876;2022-09-03T05:05:58;7.87;;;3.80;;
59492;SDS011;45497;43.996;22.876;2022-09-03T05:08:24;6.43;;;3.45;;
59492;SDS011;45497;43.996;22.876;2022-09-03T05:10:56;5.47;;;3.88;;
59492;SDS011;45497;43.996;22.876;2022-09-03T05:13:24;5.35;;;3.25;;
59492;SDS011;45497;43.996;22.876;2022-09-03T05:15:49;5.18;;;3.92;;
59492;SDS011;45497;43.996;22.876;2022-09-03T05:18:14;5.60;;;3.40;;
59492;SDS011;45497;43.996;22.876;2022-09-03T05:20:40;5.80;;;3.67;;
59492;SDS011;45497;43.996;22.876;2022-09-03T05:23:05;6.63;;;4.13;;
59492;SDS011;45497;43.996;22.876;2022-09-03T05:25:32;6.60;;;4.43;;
59492;SDS011;45497;43.996;22.876;2022-09-03T05:27:57;6.70;;;4.50;;
59492;SDS011;45497;43.996;22.876;2022-09-03T05:30:23;6.47;;;4.30;;
59492;SDS011;45497;43.996;22.876;2022-09-03T05:32:50;7.28;;;4.28;;
59492;SDS011;45497;43.996;22.876;2022-09-03T05:35:15;6.57;;;4.43;;
59492;SDS011;45497;43.996;22.876;2022-09-03T05:37:41;5.00;;;4.03;;
59492;SDS011;45497;43.996;22.876;2022-09-03T05:40:07;6.17;;;3.77;;
59492;SDS011;45497;43.996;22.876;2022-09-03T05:42:35;5.47;;;3.00;;
59492;SDS011;45497;43.996;22.876;2022-09-03T05:45:05;4.10;;;3.05;;
59492;SDS011;45497;43.996;22.876;2022-09-03T05:47:34;5.03;;;3.80;;
59492;SDS011;45497;43.996;22.876;2022-09-03T05:50:07;6.38;;;3.67;;
59492;SDS011;45497;43.996;22.876;2022-09-03T05:52:34;5.05;;;3.55;;
59492;SDS011;45497;43.996;22.876;2022-09-03T05:55:00;7.72;;;5.18;;
59492;SDS011;45497;43.996;22.876;2022-09-03T05:57:26;4.50;;;3.40;;
59492;SDS011;45497;43.996;22.876;2022-09-03T05:59:53;6.00;;;3.17;;
59492;SDS011;45497;43.996;22.876;2022-09-03T06:02:19;3.70;;;3.10;;
59492;SDS011;45497;43.996;22.876;2022-09-03T06:04:44;8.07;;;3.85;;
59492;SDS011;45497;43.996;22.876;2022-09-03T06:07:10;5.20;;;3.77;;
59492;SDS011;45497;43.996;22.876;2022-09-03T06:09:36;6.60;;;5.70;;
59492;SDS011;45497;43.996;22.876;2022-09-03T06:12:01;6.55;;;4.47;;
59492;SDS011;45497;43.996;22.876;2022-09-03T06:14:27;6.40;;;3.80;;
59492;SDS011;45497;43.996;22.876;2022-09-03T06:16:52;6.10;;;3.90;;
59492;SDS011;45497;43.996;22.876;2022-09-03T06:19:19;6.80;;;3.88;;
59492;SDS011;45497;43.996;22.876;2022-09-03T06:21:45;6.38;;;3.80;;
59492;SDS011;45497;43.996;22.876;2022-09-03T06:24:12;6.77;;;4.60;;
59492;SDS011;45497;43.996;22.876;2022-09-03T06:26:40;7.63;;;4.07;;
59492;SDS011;45497;43.996;22.876;2022-09-03T06:29:06;6.22;;;4.18;;
59492;SDS011;45497;43.996;22.876;2022-09-03T06:31:32;8.75;;;4.40;;
59492;SDS011;45497;43.996;22.876;2022-09-03T06:33:59;6.28;;;4.20;;
59492;SDS011;45497;43.996;22.876;2022-09-03T06:36:25;6.60;;;4.23;;
59492;SDS011;45497;43.996;22.876;2022-09-03T06:38:51;8.70;;;3.72;;
59492;SDS011;45497;43.996;22.876;2022-09-03T06:41:19;8.73;;;5.30;;
59492;SDS011;45497;43.996;22.876;2022-09-03T06:43:50;5.97;;;4.43;;
59492;SDS011;45497;43.996;22.876;2022-09-03T06:46:23;9.03;;;4.47;;
59492;SDS011;45497;43.996;22.876;2022-09-03T06:51:16;7.30;;;4.97;;
59492;SDS011;45497;43.996;22.876;2022-09-03T06:53:44;6.50;;;3.93;;
59492;SDS011;45497;43.996;22.876;2022-09-03T06:56:12;6.05;;;4.05;;
59492;SDS011;45497;43.996;22.876;2022-09-03T06:58:41;6.70;;;3.60;;
59492;SDS011;45497;43.996;22.876;2022-09-03T07:03:40;4.03;;;3.63;;
59492;SDS011;45497;43.996;22.876;2022-09-03T07:06:08;4.43;;;3.58;;
59492;SDS011;45497;43.996;22.876;2022-09-03T07:08:36;6.00;;;3.67;;
59492;SDS011;45497;43.996;22.876;2022-09-03T07:11:03;6.90;;;3.80;;
59492;SDS011;45497;43.996;22.876;2022-09-03T07:13:54;6.75;;;3.90;;
59492;SDS011;45497;43.996;22.876;2022-09-03T07:18:53;12.85;;;3.50;;
59492;SDS011;45497;43.996;22.876;2022-09-03T07:21:21;6.78;;;3.60;;
59492;SDS011;45497;43.996;22.876;2022-09-03T07:23:52;6.13;;;3.72;;
59492;SDS011;45497;43.996;22.876;2022-09-03T07:26:19;3.42;;;2.90;;
59492;SDS011;45497;43.996;22.876;2022-09-03T07:28:50;3.15;;;2.80;;
59492;SDS011;45497;43.996;22.876;2022-09-03T07:31:22;3.58;;;3.10;;
59492;SDS011;45497;43.996;22.876;2022-09-03T07:33:53;5.00;;;3.20;;
59492;SDS011;45497;43.996;22.876;2022-09-03T07:36:23;5.30;;;3.88;;
59492;SDS011;45497;43.996;22.876;2022-09-03T07:38:49;6.10;;;4.00;;
59492;SDS011;45497;43.996;22.876;2022-09-03T07:41:16;3.90;;;3.00;;
59492;SDS011;45497;43.996;22.876;2022-09-03T07:43:44;3.35;;;2.67;;
59492;SDS011;45497;43.996;22.876;2022-09-03T07:46:17;5.30;;;2.80;;
59492;SDS011;45497;43.996;22.876;2022-09-03T07:48:46;3.33;;;2.80;;
59492;SDS011;45497;43.996;22.876;2022-09-03T07:51:16;4.00;;;2.97;;
59492;SDS011;45497;43.996;22.876;2022-09-03T07:53:44;3.50;;;2.35;;
59492;SDS011;45497;43.996;22.876;2022-09-03T07:56:11;3.75;;;2.38;;
59492;SDS011;45497;43.996;22.876;2022-09-03T07:58:37;2.78;;;2.40;;
59492;SDS011;45497;43.996;22.876;2022-09-03T08:01:07;4.30;;;2.17;;
59492;SDS011;45497;43.996;22.876;2022-09-03T08:03:34;3.05;;;1.98;;
59492;SDS011;45497;43.996;22.876;2022-09-03T08:06:01;3.45;;;1.90;;
59492;SDS011;45497;43.996;22.876;2022-09-03T08:08:28;2.88;;;1.90;;
59492;SDS011;45497;43.996;22.876;2022-09-03T08:10:53;3.43;;;2.13;;
59492;SDS011;45497;43.996;22.876;2022-09-03T08:13:19;3.97;;;2.22;;
59492;SDS011;45497;43.996;22.876;2022-09-03T08:15:54;3.33;;;2.17;;
59492;SDS011;45497;43.996;22.876;2022-09-03T08:18:20;3.22;;;2.03;;
59492;SDS011;45497;43.996;22.876;2022-09-03T08:20:47;3.05;;;2.35;;
59492;SDS011;45497;43.996;22.876;2022-09-03T08:23:12;4.80;;;1.97;;
59492;SDS011;45497;43.996;22.876;2022-09-03T08:25:38;5.13;;;2.17;;
59492;SDS011;45497;43.996;22.876;2022-09-03T08:28:04;4.53;;;1.93;;
59492;SDS011;45497;43.996;22.876;2022-09-03T08:30:29;3.08;;;1.83;;
59492;SDS011;45497;43.996;22.876;2022-09-03T08:32:55;2.50;;;1.63;;
59492;SDS011;45497;43.996;22.876;2022-09-03T08:35:20;2.70;;;1.80;;
59492;SDS011;45497;43.996;22.876;2022-09-03T08:37:46;2.78;;;1.88;;
59492;SDS011;45497;43.996;22.876;2022-09-03T08:40:15;2.58;;;1.80;;
59492;SDS011;45497;43.996;22.876;2022-09-03T08:45:14;4.38;;;2.28;;
59492;SDS011;45497;43.996;22.876;2022-09-03T08:47:51;3.92;;;2.00;;
59492;SDS011;45497;43.996;22.876;2022-09-03T08:50:30;2.30;;;1.90;;
59492;SDS011;45497;43.996;22.876;2022-09-03T08:53:01;2.90;;;1.90;;
59492;SDS011;45497;43.996;22.876;2022-09-03T08:55:30;2.80;;;1.95;;
59492;SDS011;45497;43.996;22.876;2022-09-03T08:58:15;3.38;;;2.28;;
59492;SDS011;45497;43.996;22.876;2022-09-03T09:03:36;2.17;;;1.97;;
59492;SDS011;45497;43.996;22.876;2022-09-03T09:12:25;2.80;;;1.65;;
59492;SDS011;45497;43.996;22.876;2022-09-03T09:15:12;2.72;;;2.10;;
59492;SDS011;45497;43.996;22.876;2022-09-03T09:24:12;2.70;;;2.08;;
59492;SDS011;45497;43.996;22.876;2022-09-03T09:26:46;2.65;;;1.50;;
59492;SDS011;45497;43.996;22.876;2022-09-03T09:29:12;4.28;;;1.83;;
59492;SDS011;45497;43.996;22.876;2022-09-03T09:31:39;3.38;;;1.90;;
59492;SDS011;45497;43.996;22.876;2022-09-03T09:34:09;2.38;;;1.98;;
59492;SDS011;45497;43.996;22.876;2022-09-03T09:37:09;2.75;;;2.00;;
59492;SDS011;45497;43.996;22.876;2022-09-03T09:39:28;2.45;;;1.90;;
59492;SDS011;45497;43.996;22.876;2022-09-03T09:42:01;2.17;;;1.45;;
59492;SDS011;45497;43.996;22.876;2022-09-03T09:44:33;4.70;;;1.50;;
59492;SDS011;45497;43.996;22.876;2022-09-03T09:47:00;2.20;;;1.90;;
59492;SDS011;45497;43.996;22.876;2022-09-03T09:49:34;2.90;;;2.00;;
59492;SDS011;45497;43.996;22.876;2022-09-03T09:52:12;1.98;;;1.70;;
59492;SDS011;45497;43.996;22.876;2022-09-03T09:54:41;2.15;;;1.73;;
59492;SDS011;45497;43.996;22.876;2022-09-03T09:57:17;3.42;;;2.22;;
59492;SDS011;45497;43.996;22.876;2022-09-03T09:59:46;4.13;;;2.80;;
59492;SDS011;45497;43.996;22.876;2022-09-03T10:04:39;3.15;;;2.20;;
59492;SDS011;45497;43.996;22.876;2022-09-03T10:09:56;5.57;;;2.47;;
59492;SDS011;45497;43.996;22.876;2022-09-03T10:15:14;6.72;;;6.03;;
59492;SDS011;45497;43.996;22.876;2022-09-03T10:28:31;2.90;;;2.05;;
59492;SDS011;45497;43.996;22.876;2022-09-03T10:31:12;5.13;;;2.67;;
59492;SDS011;45497;43.996;22.876;2022-09-03T10:36:43;5.20;;;2.70;;
59492;SDS011;45497;43.996;22.876;2022-09-03T10:39:24;4.03;;;2.97;;
59492;SDS011;45497;43.996;22.876;2022-09-03T10:50:47;2.95;;;2.47;;
59492;SDS011;45497;43.996;22.876;2022-09-03T11:00:45;2.88;;;2.33;;
59492;SDS011;45497;43.996;22.876;2022-09-03T11:10:55;3.13;;;2.57;;
59492;SDS011;45497;43.996;22.876;2022-09-03T11:13:29;3.95;;;2.60;;
59492;SDS011;45497;43.996;22.876;2022-09-03T11:16:05;3.20;;;2.40;;
59492;SDS011;45497;43.996;22.876;2022-09-03T11:21:03;5.72;;;2.75;;
59492;SDS011;45497;43.996;22.876;2022-09-03T11:23:36;2.83;;;2.10;;
59492;SDS011;45497;43.996;22.876;2022-09-03T11:26:07;3.17;;;2.45;;
59492;SDS011;45497;43.996;22.876;2022-09-03T11:33:58;3.05;;;2.10;;
59492;SDS011;45497;43.996;22.876;2022-09-03T11:36:38;2.90;;;2.58;;
59492;SDS011;45497;43.996;22.876;2022-09-03T11:39:23;4.57;;;2.35;;
59492;SDS011;45497;43.996;22.876;2022-09-03T11:42:39;2.90;;;2.20;;
59492;SDS011;45497;43.996;22.876;2022-09-03T11:44:58;3.42;;;2.33;;
59492;SDS011;45497;43.996;22.876;2022-09-03T11:47:38;3.75;;;2.40;;
59492;SDS011;45497;43.996;22.876;2022-09-03T11:50:07;2.85;;;2.22;;
59492;SDS011;45497;43.996;22.876;2022-09-03T11:52:44;2.60;;;2.20;;
59492;SDS011;45497;43.996;22.876;2022-09-03T11:55:10;2.60;;;2.40;;
59492;SDS011;45497;43.996;22.876;2022-09-03T11:57:40;2.73;;;2.07;;
59492;SDS011;45497;43.996;22.876;2022-09-03T12:01:11;2.40;;;2.13;;
59492;SDS011;45497;43.996;22.876;2022-09-03T12:17:10;3.20;;;1.90;;
59492;SDS011;45497;43.996;22.876;2022-09-03T12:22:22;3.55;;;2.00;;
59492;SDS011;45497;43.996;22.876;2022-09-03T12:24:55;3.28;;;2.20;;
59492;SDS011;45497;43.996;22.876;2022-09-03T12:27:32;4.00;;;2.00;;
59492;SDS011;45497;43.996;22.876;2022-09-03T12:30:01;2.27;;;2.07;;
59492;SDS011;45497;43.996;22.876;2022-09-03T12:32:33;2.92;;;1.95;;
59492;SDS011;45497;43.996;22.876;2022-09-03T12:35:17;2.92;;;1.90;;
59492;SDS011;45497;43.996;22.876;2022-09-03T12:37:45;2.57;;;2.30;;
59492;SDS011;45497;43.996;22.876;2022-09-03T12:42:43;2.72;;;2.00;;
59492;SDS011;45497;43.996;22.876;2022-09-03T12:45:08;2.00;;;1.80;;
59492;SDS011;45497;43.996;22.876;2022-09-03T12:47:37;2.15;;;1.95;;
59492;SDS011;45497;43.996;22.876;2022-09-03T12:50:06;3.63;;;1.83;;
59492;SDS011;45497;43.996;22.876;2022-09-03T12:52:55;2.40;;;1.70;;
59492;SDS011;45497;43.996;22.876;2022-09-03T12:55:35;2.53;;;2.20;;
59492;SDS011;45497;43.996;22.876;2022-09-03T13:00:44;2.90;;;1.85;;
59492;SDS011;45497;43.996;22.876;2022-09-03T13:03:27;1.85;;;1.75;;
59492;SDS011;45497;43.996;22.876;2022-09-03T13:06:02;2.00;;;1.80;;
59492;SDS011;45497;43.996;22.876;2022-09-03T13:08:52;5.07;;;1.98;;
59492;SDS011;45497;43.996;22.876;2022-09-03T13:11:21;2.08;;;1.88;;
59492;SDS011;45497;43.996;22.876;2022-09-03T13:34:42;4.28;;;1.90;;
59492;SDS011;45497;43.996;22.876;2022-09-03T13:40:20;3.25;;;1.80;;
59492;SDS011;45497;43.996;22.876;2022-09-03T13:45:53;2.55;;;1.85;;
59492;SDS011;45497;43.996;22.876;2022-09-03T13:53:50;3.78;;;2.05;;
59492;SDS011;45497;43.996;22.876;2022-09-03T13:59:33;2.95;;;1.90;;
59492;SDS011;45497;43.996;22.876;2022-09-03T14:05:11;2.60;;;1.85;;
59492;SDS011;45497;43.996;22.876;2022-09-03T14:22:08;2.55;;;2.10;;
59492;SDS011;45497;43.996;22.876;2022-09-03T14:27:07;2.60;;;1.92;;
59492;SDS011;45497;43.996;22.876;2022-09-03T14:29:33;2.50;;;1.92;;
59492;SDS011;45497;43.996;22.876;2022-09-03T14:47:59;2.70;;;2.10;;
59492;SDS011;45497;43.996;22.876;2022-09-03T14:56:41;3.30;;;1.95;;
59492;SDS011;45497;43.996;22.876;2022-09-03T15:01:45;2.80;;;2.00;;
59492;SDS011;45497;43.996;22.876;2022-09-03T15:12:40;2.90;;;1.95;;
59492;SDS011;45497;43.996;22.876;2022-09-03T15:15:14;2.50;;;1.90;;
59492;SDS011;45497;43.996;22.876;2022-09-03T15:20:31;3.92;;;1.90;;
59492;SDS011;45497;43.996;22.876;2022-09-03T15:25:47;2.72;;;2.10;;
59492;SDS011;45497;43.996;22.876;2022-09-03T15:33:35;2.35;;;1.90;;
59492;SDS011;45497;43.996;22.876;2022-09-03T15:38:54;2.55;;;2.08;;
59492;SDS011;45497;43.996;22.876;2022-09-03T15:44:15;2.87;;;2.03;;
59492;SDS011;45497;43.996;22.876;2022-09-03T15:49:25;2.63;;;2.10;;
59492;SDS011;45497;43.996;22.876;2022-09-03T15:54:45;4.93;;;2.15;;
59492;SDS011;45497;43.996;22.876;2022-09-03T16:00:11;5.32;;;2.13;;
59492;SDS011;45497;43.996;22.876;2022-09-03T16:08:18;11.07;;;9.15;;
59492;SDS011;45497;43.996;22.876;2022-09-03T16:16:29;5.43;;;2.30;;
59492;SDS011;45497;43.996;22.876;2022-09-03T16:19:25;4.05;;;2.58;;
59492;SDS011;45497;43.996;22.876;2022-09-03T16:24:53;3.13;;;2.33;;
59492;SDS011;45497;43.996;22.876;2022-09-03T16:27:25;3.85;;;2.42;;
59492;SDS011;45497;43.996;22.876;2022-09-03T16:29:56;5.13;;;2.40;;
59492;SDS011;45497;43.996;22.876;2022-09-03T16:32:53;3.47;;;2.22;;
59492;SDS011;45497;43.996;22.876;2022-09-03T16:38:41;2.17;;;1.98;;
59492;SDS011;45497;43.996;22.876;2022-09-03T16:41:12;4.50;;;2.15;;
59492;SDS011;45497;43.996;22.876;2022-09-03T16:46:24;2.50;;;2.05;;
59492;SDS011;45497;43.996;22.876;2022-09-03T16:51:55;2.30;;;2.10;;
59492;SDS011;45497;43.996;22.876;2022-09-03T16:55:05;2.30;;;2.10;;
59492;SDS011;45497;43.996;22.876;2022-09-03T17:00:21;4.20;;;2.20;;
59492;SDS011;45497;43.996;22.876;2022-09-03T17:16:57;3.78;;;2.65;;
59492;SDS011;45497;43.996;22.876;2022-09-03T17:20:18;3.40;;;3.10;;
59492;SDS011;45497;43.996;22.876;2022-09-03T17:22:24;4.47;;;2.80;;
59492;SDS011;45497;43.996;22.876;2022-09-03T17:25:23;3.40;;;3.10;;
59492;SDS011;45497;43.996;22.876;2022-09-03T17:31:28;3.92;;;3.63;;
59492;SDS011;45497;43.996;22.876;2022-09-03T17:36:27;5.72;;;4.90;;
59492;SDS011;45497;43.996;22.876;2022-09-03T17:43:37;6.00;;;5.40;;
59492;SDS011;45497;43.996;22.876;2022-09-03T17:49:27;6.75;;;6.15;;
59492;SDS011;45497;43.996;22.876;2022-09-03T17:52:02;6.60;;;6.00;;
59492;SDS011;45497;43.996;22.876;2022-09-03T17:54:44;6.68;;;6.07;;
59492;SDS011;45497;43.996;22.876;2022-09-03T17:57:23;6.70;;;6.10;;
59492;SDS011;45497;43.996;22.876;2022-09-03T18:00:05;7.25;;;6.55;;
59492;SDS011;45497;43.996;22.876;2022-09-03T18:07:17;7.65;;;6.93;;
59492;SDS011;45497;43.996;22.876;2022-09-03T18:12:10;7.20;;;6.50;;
59492;SDS011;45497;43.996;22.876;2022-09-03T18:14:46;7.28;;;6.63;;
59492;SDS011;45497;43.996;22.876;2022-09-03T18:20:09;7.50;;;6.80;;
59492;SDS011;45497;43.996;22.876;2022-09-03T18:26:24;6.97;;;6.35;;
59492;SDS011;45497;43.996;22.876;2022-09-03T18:29:15;7.60;;;6.90;;
59492;SDS011;45497;43.996;22.876;2022-09-03T18:33:40;7.50;;;6.80;;
59492;SDS011;45497;43.996;22.876;2022-09-03T18:36:24;7.40;;;6.47;;
59492;SDS011;45497;43.996;22.876;2022-09-03T18:53:38;7.53;;;6.70;;
59492;SDS011;45497;43.996;22.876;2022-09-03T18:56:54;7.50;;;6.80;;
59492;SDS011;45497;43.996;22.876;2022-09-03T19:11:27;8.50;;;7.60;;
59492;SDS011;45497;43.996;22.876;2022-09-03T19:14:42;8.98;;;8.18;;
59492;SDS011;45497;43.996;22.876;2022-09-03T19:19:10;8.70;;;7.85;;
59492;SDS011;45497;43.996;22.876;2022-09-03T19:22:03;8.40;;;7.60;;
59492;SDS011;45497;43.996;22.876;2022-09-03T19:26:43;7.60;;;6.90;;
59492;SDS011;45497;43.996;22.876;2022-09-03T19:43:28;6.55;;;5.85;;
59492;SDS011;45497;43.996;22.876;2022-09-03T19:54:49;6.00;;;5.40;;
59492;SDS011;45497;43.996;22.876;2022-09-03T19:57:36;6.18;;;5.60;;
59492;SDS011;45497;43.996;22.876;2022-09-03T20:00:23;6.77;;;6.10;;
59492;SDS011;45497;43.996;22.876;2022-09-03T20:03:07;6.43;;;5.82;;
59492;SDS011;45497;43.996;22.876;2022-09-03T20:05:56;6.13;;;5.53;;
59492;SDS011;45497;43.996;22.876;2022-09-03T20:11:08;7.13;;;5.90;;
59492;SDS011;45497;43.996;22.876;2022-09-03T20:13:40;6.15;;;5.55;;
59492;SDS011;45497;43.996;22.876;2022-09-03T20:19:06;6.57;;;5.57;;
59492;SDS011;45497;43.996;22.876;2022-09-03T20:21:48;6.80;;;5.97;;
59492;SDS011;45497;43.996;22.876;2022-09-03T20:37:07;6.13;;;5.38;;
59492;SDS011;45497;43.996;22.876;2022-09-03T20:42:36;6.13;;;5.53;;
59492;SDS011;45497;43.996;22.876;2022-09-03T20:51:06;6.68;;;6.00;;
59492;SDS011;45497;43.996;22.876;2022-09-03T20:59:05;6.43;;;5.82;;
59492;SDS011;45497;43.996;22.876;2022-09-03T21:25:00;6.63;;;6.00;;
59492;SDS011;45497;43.996;22.876;2022-09-03T21:27:31;7.03;;;5.95;;
59492;SDS011;45497;43.996;22.876;2022-09-03T21:30:30;8.07;;;6.53;;
59492;SDS011;45497;43.996;22.876;2022-09-03T21:33:04;8.30;;;6.65;;
59492;SDS011;45497;43.996;22.876;2022-09-03T21:35:38;7.05;;;6.35;;
59492;SDS011;45497;43.996;22.876;2022-09-03T21:38:19;6.80;;;6.03;;
59492;SDS011;45497;43.996;22.876;2022-09-03T21:40:49;8.00;;;6.40;;
59492;SDS011;45497;43.996;22.876;2022-09-03T21:46:20;7.97;;;6.15;;
59492;SDS011;45497;43.996;22.876;2022-09-03T21:48:54;7.83;;;6.23;;
59492;SDS011;45497;43.996;22.876;2022-09-03T21:51:24;6.65;;;5.80;;
59492;SDS011;45497;43.996;22.876;2022-09-03T21:53:58;7.78;;;6.05;;
59492;SDS011;45497;43.996;22.876;2022-09-03T22:00:17;9.35;;;6.35;;
59492;SDS011;45497;43.996;22.876;2022-09-03T22:02:53;6.80;;;6.00;;
59492;SDS011;45497;43.996;22.876;2022-09-03T22:10:49;6.97;;;6.28;;
59492;SDS011;45497;43.996;22.876;2022-09-03T22:13:29;7.05;;;6.35;;
59492;SDS011;45497;43.996;22.876;2022-09-03T22:16:19;8.93;;;6.90;;
59492;SDS011;45497;43.996;22.876;2022-09-03T22:18:50;7.20;;;6.50;;
59492;SDS011;45497;43.996;22.876;2022-09-03T22:24:17;7.78;;;6.85;;
59492;SDS011;45497;43.996;22.876;2022-09-03T22:34:31;8.23;;;7.22;;
59492;SDS011;45497;43.996;22.876;2022-09-03T22:37:05;8.00;;;6.67;;
59492;SDS011;45497;43.996;22.876;2022-09-03T22:39:47;10.03;;;7.00;;
59492;SDS011;45497;43.996;22.876;2022-09-03T22:45:52;11.40;;;7.65;;
59492;SDS011;45497;43.996;22.876;2022-09-03T22:48:34;8.93;;;7.60;;
59492;SDS011;45497;43.996;22.876;2022-09-03T22:51:23;9.68;;;7.70;;
59492;SDS011;45497;43.996;22.876;2022-09-03T22:54:00;9.30;;;7.47;;
59492;SDS011;45497;43.996;22.876;2022-09-03T22:58:19;8.82;;;7.07;;
59492;SDS011;45497;43.996;22.876;2022-09-03T23:00:48;8.05;;;7.13;;
59492;SDS011;45497;43.996;22.876;2022-09-03T23:03:41;9.70;;;7.70;;
59492;SDS011;45497;43.996;22.876;2022-09-03T23:06:33;8.73;;;7.78;;
59492;SDS011;45497;43.996;22.876;2022-09-03T23:09:04;11.43;;;7.97;;